Time;durP1;ratioP1;P1;durP2;ratioP2;P2;SDS_P1;SDS_P2;PMS_P1;PMS_P2;Temp;Humidity;BMP_temperature;BMP_pressure;BME280_temperature;BME280_humidity;BME280_pressure;Samples;Min_cycle;Max_cycle;Signal;HPM_P1;HPM_P2
2023/02/08 00:00:59;;;;;;;7.83;6.63;;;;;;;1.30;45.49;101368.56;5017369;28;20481;-80
2023/02/08 00:03:26;;;;;;;8.27;6.37;;;;;;;0.90;45.67;101290.69;5034992;28;20026;-80
2023/02/08 00:05:52;;;;;;;9.07;7.20;;;;;;;0.49;45.78;101216.41;5017300;28;20112;-80
2023/02/08 00:08:17;;;;;;;7.63;6.33;;;;;;;1.32;45.88;101343.31;5035336;28;20172;-80
2023/02/08 00:10:43;;;;;;;8.23;6.03;;;;;;;0.78;45.46;101264.44;5018177;28;20028;-80
2023/02/08 00:13:08;;;;;;;6.83;6.03;;;;;;;0.64;45.96;101246.88;5035506;28;20029;-80
2023/02/08 00:15:34;;;;;;;10.83;6.67;;;;;;;0.69;45.84;101244.91;5017470;28;20035;-80
2023/02/08 00:17:59;;;;;;;12.30;7.83;;;;;;;1.08;46.04;101303.72;5035301;28;20029;-80
2023/02/08 00:20:25;;;;;;;10.67;7.30;;;;;;;0.64;45.95;101255.53;5035069;28;20017;-81
2023/02/08 00:22:50;;;;;;;10.27;7.33;;;;;;;0.73;45.88;101263.78;5035279;28;20060;-81
2023/02/08 00:25:15;;;;;;;12.80;7.23;;;;;;;0.46;46.00;101251.19;5034432;28;20025;-81
2023/02/08 00:27:41;;;;;;;9.30;7.20;;;;;;;0.43;45.99;101240.94;5034571;28;20029;-81
2023/02/08 00:30:09;;;;;;;9.50;7.80;;;;;;;0.49;46.25;101247.59;5016649;28;20029;-80
2023/02/08 00:32:34;;;;;;;8.47;6.67;;;;;;;0.57;46.36;101271.47;5018840;28;20118;-80
2023/02/08 00:35:00;;;;;;;8.60;5.97;;;;;;;0.79;46.35;101295.56;5035651;28;20017;-80
2023/02/08 00:37:25;;;;;;;7.30;6.20;;;;;;;0.82;46.70;101300.63;5018187;28;20060;-81
2023/02/08 00:39:51;;;;;;;8.97;5.77;;;;;;;0.86;46.55;101309.13;5036304;28;20112;-81
2023/02/08 00:42:16;;;;;;;6.70;5.67;;;;;;;0.67;46.84;101292.69;5036449;28;20033;-81
2023/02/08 00:44:41;;;;;;;7.67;5.23;;;;;;;0.77;47.13;101307.81;5036287;28;20017;-81
2023/02/08 00:47:07;;;;;;;6.63;5.53;;;;;;;0.50;46.98;101259.69;5036536;28;20509;-81
2023/02/08 00:49:32;;;;;;;7.50;5.47;;;;;;;0.82;46.89;101307.59;5034341;28;20034;-80
2023/02/08 00:51:58;;;;;;;6.53;5.27;;;;;;;-0.67;46.61;101091.97;5016773;28;20029;-81
2023/02/08 00:54:23;;;;;;;7.93;5.87;;;;;;;1.17;46.87;101366.56;5034051;28;20573;-81
2023/02/08 00:56:48;;;;;;;8.70;5.97;;;;;;;0.80;46.95;101309.41;5034604;28;20026;-80
2023/02/08 00:59:14;;;;;;;6.87;5.83;;;;;;;0.24;46.73;101211.53;5034572;28;20124;-80
2023/02/08 01:01:40;;;;;;;8.10;6.53;;;;;;;0.89;46.70;101322.81;5016792;28;20037;-80
2023/02/08 01:04:06;;;;;;;8.20;6.00;;;;;;;0.97;46.92;101347.63;5035998;28;20026;-80
2023/02/08 01:06:31;;;;;;;8.47;6.80;;;;;;;0.42;46.89;101261.81;5035696;28;20026;-80
2023/02/08 01:08:56;;;;;;;6.67;6.00;;;;;;;0.46;46.62;101253.78;5035864;28;20085;-80
2023/02/08 01:11:24;;;;;;;8.53;6.60;;;;;;;1.13;46.46;101356.38;5035756;28;20025;-80
2023/02/08 01:13:53;;;;;;;7.60;5.90;;;;;;;1.11;46.86;101356.44;5035627;28;20414;-80
2023/02/08 01:16:22;;;;;;;7.83;6.50;;;;;;;0.47;46.45;101294.44;5035366;28;20136;-80
2023/02/08 01:18:51;;;;;;;7.20;6.03;;;;;;;1.16;46.72;101348.44;5033644;28;20048;-80
2023/02/08 01:21:19;;;;;;;8.20;6.17;;;;;;;1.18;46.85;101349.19;5034022;28;20021;-80
2023/02/08 01:23:45;;;;;;;8.47;6.27;;;;;;;1.17;46.57;101347.50;5033981;28;20025;-80
2023/02/08 01:26:13;;;;;;;10.57;6.50;;;;;;;0.65;46.86;101261.56;5015876;28;20026;-80
2023/02/08 01:28:39;;;;;;;10.00;7.13;;;;;;;0.32;47.16;101206.81;5016370;28;20032;-80
2023/02/08 01:31:17;;;;;;;9.83;7.73;;;;;;;0.72;46.73;101275.94;5034062;28;20100;-80
2023/02/08 01:33:42;;;;;;;9.80;6.63;;;;;;;0.81;46.67;101322.34;5033860;28;20035;-80
2023/02/08 01:36:09;;;;;;;10.47;7.10;;;;;;;1.14;46.84;101345.91;5033785;28;20025;-80
2023/02/08 01:38:35;;;;;;;8.83;6.40;;;;;;;1.16;46.85;101351.03;5033829;28;20022;-81
2023/02/08 01:41:02;;;;;;;8.77;6.20;;;;;;;1.14;46.87;101347.66;5033976;28;20496;-80
2023/02/08 01:43:52;;;;;;;7.53;6.17;;;;;;;0.86;46.70;101327.31;5034393;28;20033;-80
2023/02/08 01:46:17;;;;;;;7.97;6.20;;;;;;;1.00;47.00;101337.91;5034268;28;20092;-80
2023/02/08 01:48:43;;;;;;;7.23;5.93;;;;;;;0.36;46.93;101231.75;5034551;28;20025;-80
2023/02/08 01:51:18;;;;;;;10.20;7.50;;;;;;;0.62;46.99;101272.09;5016535;28;20517;-80
2023/02/08 01:53:44;;;;;;;11.13;8.37;;;;;;;0.47;46.92;101299.66;5016332;28;20399;-81
2023/02/08 01:56:14;;;;;;;14.97;10.37;;;;;;;0.10;46.45;101182.78;5016366;28;20021;-81
2023/02/08 01:58:45;;;;;;;14.80;10.70;;;;;;;0.49;45.96;101260.59;5034168;28;20033;-80
2023/02/08 02:01:12;;;;;;;15.43;11.87;;;;;;;0.28;46.11;101258.09;5035162;28;20087;-81
2023/02/08 02:03:38;;;;;;;15.97;12.00;;;;;;;0.54;46.00;101290.66;5035785;28;20553;-81
2023/02/08 02:06:10;;;;;;;17.80;12.80;;;;;;;-0.04;45.54;101217.13;5035525;28;20064;-81
2023/02/08 02:08:37;;;;;;;18.63;13.32;;;;;;;0.31;45.84;101272.69;5035142;28;20522;-81
2023/02/08 02:11:02;;;;;;;20.03;13.70;;;;;;;0.49;45.47;101334.19;5017120;28;20085;-81
2023/02/08 02:13:28;;;;;;;32.20;18.70;;;;;;;0.16;45.91;101281.19;5034481;28;20024;-81
2023/02/08 02:15:53;;;;;;;24.10;17.20;;;;;;;-0.14;45.91;101234.88;5016707;28;20040;-80
2023/02/08 02:18:27;;;;;;;22.97;14.67;;;;;;;0.56;45.59;101353.81;5014951;28;20134;-81
2023/02/08 02:21:04;;;;;;;19.40;15.30;;;;;;;0.55;45.71;101359.91;5032551;28;20429;-81
2023/02/08 02:24:04;;;;;;;21.87;15.60;;;;;;;0.40;45.72;101352.81;5032765;28;20037;-81
2023/02/08 02:26:54;;;;;;;24.50;16.43;;;;;;;0.47;45.76;101372.41;5032908;28;20037;-81
2023/02/08 02:29:49;;;;;;;22.53;15.87;;;;;;;0.43;45.80;101357.88;5015502;28;20079;-81
2023/02/08 02:32:24;;;;;;;22.07;15.30;;;;;;;0.58;45.89;101377.13;5005739;28;20052;-81
2023/02/08 02:35:22;;;;;;;22.17;15.30;;;;;;;0.66;45.87;101377.63;5034678;28;20453;-81
2023/02/08 02:38:15;;;;;;;21.43;15.70;;;;;;;0.58;45.59;101383.16;4990949;28;20045;-81
2023/02/08 02:44:59;;;;;;;20.43;14.63;;;;;;;0.51;45.81;101389.56;5034854;28;20056;-81
2023/02/08 02:47:54;;;;;;;24.20;17.20;;;;;;;0.51;46.21;101392.16;5031910;28;20029;-81
2023/02/08 02:50:24;;;;;;;25.37;16.97;;;;;;;0.08;46.05;101322.22;5014429;28;20025;-81
2023/02/08 02:53:01;;;;;;;25.67;18.00;;;;;;;0.39;46.13;101371.06;5032236;28;20029;-80
2023/02/08 02:55:32;;;;;;;26.63;17.43;;;;;;;0.34;46.76;101409.41;5032362;28;20517;-80
2023/02/08 02:58:01;;;;;;;29.07;18.30;;;;;;;-0.51;46.84;101277.16;5032564;28;20476;-80
2023/02/08 03:00:28;;;;;;;26.60;17.93;;;;;;;-0.05;46.81;101377.25;5032584;28;20026;-81
2023/02/08 03:02:54;;;;;;;27.03;18.93;;;;;;;0.30;47.03;101406.94;5014611;28;20167;-80
2023/02/08 03:05:20;;;;;;;29.63;19.67;;;;;;;-0.26;46.89;101328.84;5032428;28;20100;-80
2023/02/08 03:07:49;;;;;;;29.03;19.57;;;;;;;0.30;47.21;101430.31;5011409;28;20046;-80
2023/02/08 03:10:28;;;;;;;29.63;19.40;;;;;;;0.36;47.39;101430.97;5013456;28;20510;-80
2023/02/08 03:13:05;;;;;;;27.03;18.70;;;;;;;0.39;47.34;101442.06;5014225;28;20104;-80
2023/02/08 03:15:42;;;;;;;29.13;18.10;;;;;;;0.44;47.25;101439.25;5013881;28;20022;-81
2023/02/08 03:18:36;;;;;;;27.93;18.87;;;;;;;0.45;47.58;101439.19;5012968;28;20465;-81
2023/02/08 03:21:36;;;;;;;30.43;18.40;;;;;;;0.45;47.14;101439.19;5014421;28;20061;-81
2023/02/08 03:24:30;;;;;;;28.23;19.20;;;;;;;0.46;47.37;101446.09;5012746;28;20033;-81
2023/02/08 03:27:10;;;;;;;27.63;19.50;;;;;;;0.53;47.30;101454.44;5012203;28;20025;-80
2023/02/08 03:29:59;;;;;;;29.50;19.60;;;;;;;0.04;47.53;101363.06;5012218;28;20488;-80
2023/02/08 03:32:40;;;;;;;29.30;20.17;;;;;;;0.34;47.23;101402.44;5010919;28;20030;-80
2023/02/08 03:35:18;;;;;;;28.53;19.57;;;;;;;0.55;47.58;101492.47;5011925;28;20084;-81
2023/02/08 03:37:53;;;;;;;26.90;18.50;;;;;;;0.59;47.49;101451.59;5010726;28;20104;-81
2023/02/08 03:40:24;;;;;;;26.73;17.83;;;;;;;0.35;47.49;101434.47;5012095;28;20479;-81
2023/02/08 03:42:53;;;;;;;27.90;20.07;;;;;;;-0.16;47.63;101340.53;5011664;28;20022;-81
2023/02/08 03:45:30;;;;;;;25.63;18.17;;;;;;;0.49;47.71;101445.94;5010259;28;20124;-81
2023/02/08 03:48:01;;;;;;;26.23;18.33;;;;;;;-0.13;47.63;101355.13;5010650;28;20103;-81
2023/02/08 03:50:31;;;;;;;25.00;17.37;;;;;;;0.15;48.16;101438.78;5012002;28;20483;-81
2023/02/08 03:52:57;;;;;;;28.90;19.20;;;;;;;-0.18;48.02;101398.63;5011742;28;20441;-80
2023/02/08 03:55:32;;;;;;;28.67;20.17;;;;;;;-0.14;48.20;101397.59;5015346;28;20029;-80
2023/02/08 03:58:11;;;;;;;27.10;17.97;;;;;;;0.29;48.36;101470.19;5015759;28;20068;-80
2023/02/08 04:00:41;;;;;;;32.73;20.13;;;;;;;-0.61;48.26;101350.25;5015712;28;20050;-80
2023/02/08 04:03:21;;;;;;;29.47;19.67;;;;;;;0.37;47.97;101474.22;5021896;28;20025;-81
2023/02/08 04:05:48;;;;;;;31.30;19.87;;;;;;;-0.39;48.23;101340.66;5024902;28;20022;-81
2023/02/08 04:08:13;;;;;;;30.60;19.27;;;;;;;-0.04;47.79;101410.09;5018340;28;20046;-81
2023/02/08 04:10:39;;;;;;;26.30;18.27;;;;;;;0.13;48.12;101443.19;5011477;28;20053;-81
2023/02/08 04:13:04;;;;;;;33.23;20.50;;;;;;;-0.77;48.21;101291.19;5011629;28;20061;-81
2023/02/08 04:15:29;;;;;;;31.03;20.60;;;;;;;-0.45;48.21;101346.97;5011574;28;20018;-81
2023/02/08 04:17:55;;;;;;;29.27;20.77;;;;;;;0.17;48.18;101444.75;5015273;28;20442;-81
2023/02/08 04:20:20;;;;;;;32.07;20.87;;;;;;;0.45;48.34;101475.56;5015208;28;20057;-80
2023/02/08 04:22:46;;;;;;;29.73;19.67;;;;;;;-0.30;48.05;101360.19;5016429;28;20395;-80
2023/02/08 04:25:11;;;;;;;28.50;19.97;;;;;;;0.30;48.46;101471.88;5014859;28;20026;-80
2023/02/08 04:27:37;;;;;;;26.90;18.60;;;;;;;-0.08;48.42;101413.75;5015781;28;20089;-80
2023/02/08 04:30:03;;;;;;;30.87;21.00;;;;;;;0.50;48.28;101502.22;5019983;28;20022;-80
2023/02/08 04:32:29;;;;;;;30.37;19.73;;;;;;;-0.27;48.49;101396.41;5015775;28;20029;-80
2023/02/08 04:34:54;;;;;;;30.67;20.97;;;;;;;-0.37;48.13;101377.78;5013655;28;20410;-80
2023/02/08 04:37:20;;;;;;;37.07;24.60;;;;;;;0.01;48.63;101461.03;5013376;28;20025;-80
2023/02/08 04:39:45;;;;;;;33.70;23.53;;;;;;;-0.37;48.59;101409.75;5013336;28;20021;-80
2023/02/08 04:42:11;;;;;;;34.00;21.53;;;;;;;-0.63;48.36;101362.44;5014795;28;20037;-80
2023/02/08 04:44:36;;;;;;;30.00;20.43;;;;;;;-0.17;48.92;101447.88;5013221;28;20018;-80
2023/02/08 04:47:01;;;;;;;29.80;21.10;;;;;;;0.02;48.98;101505.13;5014174;28;20030;-80
2023/02/08 04:49:27;;;;;;;27.13;19.27;;;;;;;-0.25;48.75;101436.97;5014482;28;20037;-80
2023/02/08 04:51:52;;;;;;;31.80;21.80;;;;;;;-1.26;48.87;101269.00;5014499;28;20028;-80
2023/02/08 04:54:18;;;;;;;29.67;19.50;;;;;;;-0.09;48.87;101481.31;5014465;28;20414;-80
2023/02/08 04:56:43;;;;;;;29.73;20.43;;;;;;;0.17;49.04;101508.84;5013485;28;20479;-81
2023/02/08 04:59:08;;;;;;;31.93;22.43;;;;;;;-0.73;48.91;101374.94;5013126;28;20037;-81
2023/02/08 05:01:34;;;;;;;30.97;21.37;;;;;;;-0.36;48.74;101452.13;5014191;28;20036;-81
2023/02/08 05:03:59;;;;;;;31.50;19.97;;;;;;;-0.33;48.90;101459.78;5015809;28;20038;-81
2023/02/08 05:06:25;;;;;;;29.10;20.53;;;;;;;-0.08;48.85;101502.03;5016860;28;20029;-80
2023/02/08 05:08:50;;;;;;;35.00;21.43;;;;;;;0.32;48.35;101560.16;5033155;28;20045;-80
2023/02/08 05:11:20;;;;;;;33.50;21.67;;;;;;;0.06;48.52;101511.03;5036666;28;20086;-80
2023/02/08 05:13:45;;;;;;;30.17;20.70;;;;;;;-0.35;48.69;101466.78;5036473;28;20041;-80
2023/02/08 05:16:11;;;;;;;31.33;20.87;;;;;;;-0.98;48.51;101349.09;5035811;28;20096;-80
2023/02/08 05:18:36;;;;;;;31.23;21.93;;;;;;;0.35;48.34;101574.78;5018359;28;20540;-81
2023/02/08 05:21:02;;;;;;;28.27;19.77;;;;;;;-0.07;48.33;101503.72;5018768;28;20026;-81
2023/02/08 05:23:28;;;;;;;36.93;22.90;;;;;;;-0.13;48.36;101514.34;5018012;28;20021;-81
2023/02/08 05:25:54;;;;;;;30.27;22.27;;;;;;;0.23;48.26;101537.16;5017828;28;20048;-81
2023/02/08 05:28:20;;;;;;;34.17;20.97;;;;;;;-0.12;48.06;101489.22;5035541;28;20034;-81
2023/02/08 05:30:46;;;;;;;31.53;21.90;;;;;;;0.46;48.04;101581.22;5036158;28;20033;-81
2023/02/08 05:33:12;;;;;;;29.80;20.43;;;;;;;-0.94;47.77;101355.00;5035521;28;20055;-81
2023/02/08 05:35:37;;;;;;;32.00;20.80;;;;;;;0.46;47.79;101590.75;5036290;28;20026;-81
2023/02/08 05:38:02;;;;;;;33.47;21.37;;;;;;;0.07;47.92;101521.34;5017813;28;20033;-81
2023/02/08 05:40:28;;;;;;;36.83;23.80;;;;;;;0.16;47.86;101531.38;5035348;28;20033;-81
2023/02/08 05:42:53;;;;;;;32.87;20.47;;;;;;;0.16;47.84;101540.91;5018931;28;20545;-81
2023/02/08 05:45:19;;;;;;;29.37;20.73;;;;;;;0.35;47.87;101567.81;5037459;28;20030;-81
2023/02/08 05:47:46;;;;;;;32.80;21.33;;;;;;;0.10;47.54;101535.97;5037808;28;20417;-81
2023/02/08 05:50:12;;;;;;;33.30;21.37;;;;;;;0.38;47.78;101579.84;5019803;28;20498;-81
2023/02/08 05:52:37;;;;;;;32.20;21.33;;;;;;;-1.00;47.60;101380.28;5018036;28;20036;-81
2023/02/08 05:55:03;;;;;;;28.27;19.27;;;;;;;-0.15;47.59;101469.44;5034614;28;20438;-80
2023/02/08 05:57:28;;;;;;;30.93;19.50;;;;;;;0.05;47.67;101517.13;5030833;28;20063;-80
2023/02/08 05:59:54;;;;;;;34.50;22.10;;;;;;;0.16;47.28;101528.75;5016285;28;20033;-81
2023/02/08 06:02:19;;;;;;;29.93;21.10;;;;;;;-0.06;47.15;101507.16;5034514;28;20029;-81
2023/02/08 06:04:45;;;;;;;32.07;19.37;;;;;;;0.17;47.55;101535.66;5034938;28;20033;-80
2023/02/08 06:07:10;;;;;;;26.47;18.13;;;;;;;0.24;47.48;101546.63;5035553;28;20127;-80
2023/02/08 06:09:36;;;;;;;31.33;19.27;;;;;;;0.20;47.54;101558.91;5018103;28;20119;-80
2023/02/08 06:12:02;;;;;;;29.87;20.43;;;;;;;-0.04;47.47;101506.19;5019897;28;20409;-80
2023/02/08 06:14:27;;;;;;;27.90;19.63;;;;;;;0.48;47.46;101604.53;5038007;28;20025;-80
2023/02/08 06:16:52;;;;;;;30.97;19.97;;;;;;;0.13;47.33;101559.22;5033751;28;20079;-80
2023/02/08 06:19:18;;;;;;;28.93;20.17;;;;;;;-0.78;47.05;101388.06;5032782;28;20091;-80
2023/02/08 06:21:43;;;;;;;32.37;21.20;;;;;;;0.01;47.03;101544.97;5032460;28;20465;-80
2023/02/08 06:24:10;;;;;;;34.93;22.93;;;;;;;0.82;47.16;101625.66;5032901;28;20032;-80
2023/02/08 06:26:35;;;;;;;29.53;20.10;;;;;;;0.86;46.86;101635.00;5032653;28;20021;-80
2023/02/08 06:29:01;;;;;;;28.33;19.23;;;;;;;0.73;47.01;101613.00;5015123;28;20506;-80
2023/02/08 06:31:26;;;;;;;27.53;18.63;;;;;;;0.60;46.93;101581.47;5032991;28;20041;-80
2023/02/08 06:33:51;;;;;;;28.17;18.77;;;;;;;0.30;46.99;101539.44;5032759;28;20025;-80
2023/02/08 06:36:17;;;;;;;25.47;18.37;;;;;;;0.75;46.99;101598.22;5032924;28;20060;-80
2023/02/08 06:38:42;;;;;;;29.17;19.37;;;;;;;0.17;46.98;101506.22;5029236;28;20079;-80
2023/02/08 06:41:08;;;;;;;25.63;18.73;;;;;;;0.16;46.89;101522.72;5029082;28;20102;-80
2023/02/08 06:43:33;;;;;;;25.20;18.03;;;;;;;0.30;46.89;101526.44;5032019;28;20110;-80
2023/02/08 06:45:59;;;;;;;29.93;20.90;;;;;;;0.16;47.06;101505.38;5032053;28;20021;-80
2023/02/08 06:48:24;;;;;;;32.50;21.67;;;;;;;0.12;46.88;101509.03;5012575;28;20036;-80
2023/02/08 06:50:54;;;;;;;35.20;22.10;;;;;;;0.72;47.34;101619.09;5031526;28;20112;-80
2023/02/08 06:53:20;;;;;;;35.40;23.07;;;;;;;0.53;47.43;101587.84;5008583;28;20037;-80
2023/02/08 06:55:49;;;;;;;34.00;23.47;;;;;;;0.62;47.26;101602.22;5026819;28;20045;-80
2023/02/08 06:58:14;;;;;;;31.73;20.93;;;;;;;0.80;47.61;101653.47;5031547;28;20494;-80
2023/02/08 07:00:40;;;;;;;35.93;22.57;;;;;;;0.79;47.35;101641.38;5013828;28;20045;-80
2023/02/08 07:03:05;;;;;;;28.93;20.37;;;;;;;0.21;47.64;101537.22;5032381;28;20026;-80
2023/02/08 07:05:34;;;;;;;31.10;21.47;;;;;;;-0.02;47.26;101495.72;5015963;28;20422;-80
2023/02/08 07:07:59;;;;;;;30.63;21.30;;;;;;;-0.26;47.33;101497.56;5031873;28;20037;-80
2023/02/08 07:10:25;;;;;;;32.57;22.07;;;;;;;0.71;47.65;101642.56;5030276;28;20032;-80
2023/02/08 07:12:50;;;;;;;31.47;20.37;;;;;;;-0.31;47.57;101442.41;5026863;28;20049;-80
2023/02/08 07:15:16;;;;;;;29.47;20.23;;;;;;;0.44;47.40;101561.41;5012265;28;20395;-80
2023/02/08 07:17:41;;;;;;;30.10;21.13;;;;;;;0.18;47.24;101545.13;5015429;28;20490;-80
2023/02/08 07:20:08;;;;;;;29.03;19.03;;;;;;;0.12;47.80;101516.81;5030459;28;20033;-80
2023/02/08 07:22:34;;;;;;;33.37;19.50;;;;;;;0.89;47.31;101636.63;5007575;28;20034;-80
2023/02/08 07:24:59;;;;;;;27.53;18.50;;;;;;;0.38;47.57;101553.84;5031671;28;20041;-80
2023/02/08 07:27:24;;;;;;;26.60;19.67;;;;;;;0.14;47.92;101521.94;5005549;28;20034;-80
2023/02/08 07:29:50;;;;;;;27.43;19.20;;;;;;;0.54;47.73;101597.34;5014799;28;20159;-79
2023/02/08 07:32:15;;;;;;;26.00;17.70;;;;;;;0.89;47.72;101652.22;5010472;28;20414;-80
2023/02/08 07:34:41;;;;;;;24.43;17.60;;;;;;;0.89;47.71;101647.03;5030703;28;20033;-80
2023/02/08 07:37:07;;;;;;;27.27;19.80;;;;;;;0.42;47.75;101584.00;5021226;28;20480;-80
2023/02/08 07:39:32;;;;;;;26.90;18.03;;;;;;;0.77;47.92;101626.75;4994008;28;20491;-81
2023/02/08 07:41:58;;;;;;;28.60;18.27;;;;;;;0.67;47.94;101615.00;5021133;28;20034;-80
2023/02/08 07:44:23;;;;;;;29.20;18.97;;;;;;;-0.51;47.88;101419.00;5029796;28;20111;-81
2023/02/08 07:46:49;;;;;;;24.17;16.77;;;;;;;0.17;47.85;101524.41;5028083;28;20045;-80
2023/02/08 07:49:14;;;;;;;26.27;16.73;;;;;;;0.68;47.81;101645.28;5030291;28;20052;-80
2023/02/08 07:51:40;;;;;;;22.17;16.03;;;;;;;0.73;48.04;101606.94;5031336;28;20022;-80
2023/02/08 07:54:05;;;;;;;26.23;15.13;;;;;;;0.46;48.06;101577.75;5031474;28;20550;-80
2023/02/08 07:56:31;;;;;;;24.77;17.33;;;;;;;0.53;48.10;101585.25;5003808;28;20064;-80
2023/02/08 07:58:56;;;;;;;24.17;16.20;;;;;;;1.07;48.12;101659.25;5013159;28;20116;-80
2023/02/08 08:01:21;;;;;;;26.43;16.87;;;;;;;0.47;48.21;101551.72;5027356;28;20029;-80
2023/02/08 08:03:48;;;;;;;23.40;16.37;;;;;;;0.98;47.91;101627.59;5033062;28;20494;-80
2023/02/08 08:06:13;;;;;;;21.17;14.73;;;;;;;1.18;48.09;101648.38;5033840;28;20490;-80
2023/02/08 08:08:39;;;;;;;24.47;17.47;;;;;;;1.23;48.21;101657.69;5019686;28;20048;-79
2023/02/08 08:11:05;;;;;;;22.43;16.37;;;;;;;1.32;48.24;101660.78;5035571;28;20053;-80
2023/02/08 08:13:30;;;;;;;21.03;15.30;;;;;;;1.08;48.08;101654.91;5016357;28;20029;-80
2023/02/08 08:15:56;;;;;;;18.77;12.27;;;;;;;1.18;48.05;101661.38;5025998;28;20097;-79
2023/02/08 08:18:21;;;;;;;19.40;12.63;;;;;;;0.99;48.03;101634.47;5029077;28;20088;-80
2023/02/08 08:20:47;;;;;;;17.60;13.10;;;;;;;0.83;47.45;101616.09;5014630;28;20033;-80
2023/02/08 08:23:12;;;;;;;17.53;13.07;;;;;;;1.17;47.65;101644.94;5033854;28;20100;-80
2023/02/08 08:25:37;;;;;;;18.17;13.47;;;;;;;1.41;47.60;101686.41;5016888;28;20045;-80
2023/02/08 08:28:03;;;;;;;19.40;12.90;;;;;;;1.03;47.29;101597.03;5034405;28;20035;-80
2023/02/08 08:30:29;;;;;;;16.87;11.77;;;;;;;0.79;47.33;101549.53;5034803;28;20056;-80
2023/02/08 08:32:55;;;;;;;14.97;11.20;;;;;;;1.10;47.10;101614.06;5013898;28;20036;-80
2023/02/08 08:35:20;;;;;;;14.30;11.10;;;;;;;1.37;46.84;101625.84;5033393;28;20033;-80
2023/02/08 08:37:45;;;;;;;12.30;9.70;;;;;;;1.21;46.37;101585.81;5034229;28;20053;-80
2023/02/08 08:40:11;;;;;;;14.83;11.60;;;;;;;1.74;46.13;101664.13;5016712;28;20056;-80
2023/02/08 08:42:38;;;;;;;16.00;12.47;;;;;;;1.77;46.07;101656.16;5030294;28;20028;-80
2023/02/08 08:45:05;;;;;;;16.43;11.57;;;;;;;1.69;45.92;101631.38;5016445;28;20067;-80
2023/02/08 08:47:30;;;;;;;14.27;9.70;;;;;;;1.34;45.54;101605.16;5025926;28;20025;-81
2023/02/08 08:49:55;;;;;;;14.97;11.23;;;;;;;1.61;45.19;101642.16;5036185;28;20028;-82
2023/02/08 08:52:21;;;;;;;17.90;11.93;;;;;;;1.82;45.32;101659.41;5027677;28;20029;-80
2023/02/08 08:54:46;;;;;;;15.67;11.70;;;;;;;1.66;45.41;101639.34;5025842;28;20025;-80
2023/02/08 08:57:12;;;;;;;18.20;13.60;;;;;;;1.04;45.06;101526.72;5033946;28;20525;-80
2023/02/08 08:59:37;;;;;;;14.80;11.83;;;;;;;1.22;45.01;101543.25;5036004;28;20036;-80
2023/02/08 09:02:02;;;;;;;15.30;11.00;;;;;;;1.68;45.39;101659.19;5025450;28;20037;-80
2023/02/08 09:04:28;;;;;;;15.87;12.70;;;;;;;1.56;45.19;101623.28;5009905;28;20049;-80
2023/02/08 09:06:54;;;;;;;21.20;14.03;;;;;;;2.06;45.40;101713.88;5033671;28;20040;-80
2023/02/08 09:09:20;;;;;;;14.70;11.73;;;;;;;1.25;45.04;101584.75;5017259;28;20418;-80
2023/02/08 09:11:46;;;;;;;15.80;12.07;;;;;;;0.85;45.07;101511.09;5016870;28;20032;-81
2023/02/08 09:14:12;;;;;;;16.03;11.13;;;;;;;1.79;45.33;101654.31;5004757;28;20152;-81
2023/02/08 09:16:40;;;;;;;20.27;13.57;;;;;;;0.98;44.96;101521.81;5007059;28;20025;-81
2023/02/08 09:19:07;;;;;;;18.37;12.67;;;;;;;1.58;45.13;101637.94;5031352;28;20483;-82
2023/02/08 09:21:33;;;;;;;18.47;12.63;;;;;;;1.66;44.95;101654.97;5014554;28;20083;-80
2023/02/08 09:24:03;;;;;;;18.13;12.80;;;;;;;1.79;44.79;101685.59;5031206;28;20480;-80
2023/02/08 09:26:28;;;;;;;20.40;14.77;;;;;;;1.40;44.85;101604.03;5016427;28;20021;-80
2023/02/08 09:28:54;;;;;;;23.73;13.90;;;;;;;1.75;44.75;101646.72;5017520;28;20025;-81
2023/02/08 09:31:22;;;;;;;25.57;15.00;;;;;;;1.95;44.64;101675.31;5019178;28;20457;-82
2023/02/08 09:33:49;;;;;;;18.17;12.30;;;;;;;2.34;44.53;101729.13;5031844;28;21377;-80
2023/02/08 09:36:15;;;;;;;16.23;12.77;;;;;;;1.32;44.74;101560.16;5029741;28;20018;-81
2023/02/08 09:38:42;;;;;;;16.80;12.83;;;;;;;2.13;44.64;101697.06;5014936;28;20049;-81
2023/02/08 09:41:17;;;;;;;17.83;12.40;;;;;;;2.21;44.69;101729.66;5032990;28;20088;-80
2023/02/08 09:43:53;;;;;;;16.73;12.40;;;;;;;1.99;44.48;101697.69;5016232;28;20095;-81
2023/02/08 09:46:21;;;;;;;16.17;11.23;;;;;;;2.28;44.74;101725.03;5029210;28;20017;-81
2023/02/08 09:48:51;;;;;;;15.80;11.80;;;;;;;1.57;44.40;101598.94;5023774;28;20124;-81
2023/02/08 09:51:55;;;;;;;16.17;10.93;;;;;;;2.61;44.14;101717.38;5022218;28;20087;-80
2023/02/08 09:54:36;;;;;;;15.10;10.73;;;;;;;2.55;43.03;101647.28;5020238;28;20050;-80
2023/02/08 09:57:09;;;;;;;14.23;11.23;;;;;;;2.97;43.64;101709.50;5011127;28;20026;-81
2023/02/08 09:59:37;;;;;;;16.50;11.30;;;;;;;2.19;43.14;101563.88;5007831;28;20036;-81
2023/02/08 10:02:17;;;;;;;15.93;10.23;;;;;;;2.49;42.53;101626.72;5015454;28;20513;-81
2023/02/08 10:04:51;;;;;;;17.13;10.70;;;;;;;2.28;41.44;101612.13;5018564;28;20495;-81
2023/02/08 10:07:16;;;;;;;15.43;10.77;;;;;;;2.35;41.92;101596.09;5012146;28;20061;-81
2023/02/08 10:09:42;;;;;;;20.13;12.67;;;;;;;1.53;42.23;101472.44;5013823;28;20624;-81
2023/02/08 10:12:21;;;;;;;15.77;9.93;;;;;;;3.03;42.21;101690.97;5032419;28;20040;-81
2023/02/08 10:15:32;;;;;;;17.07;10.03;;;;;;;3.03;41.18;101685.75;5025877;28;20041;-81
2023/02/08 10:18:17;;;;;;;15.10;8.83;;;;;;;2.49;41.90;101593.66;5006743;28;20037;-81
2023/02/08 10:21:24;;;;;;;14.07;9.60;;;;;;;2.82;41.60;101645.06;5029479;28;20495;-81
2023/02/08 10:23:49;;;;;;;11.00;8.67;;;;;;;3.11;42.27;101674.91;5004798;28;20434;-80
2023/02/08 10:26:44;;;;;;;15.90;11.23;;;;;;;2.80;40.55;101584.28;5005603;28;20025;-81
2023/02/08 10:29:24;;;;;;;13.63;8.73;;;;;;;3.42;41.05;101653.28;5008622;28;20021;-80
2023/02/08 10:32:18;;;;;;;12.00;8.33;;;;;;;3.04;40.00;101580.44;5026262;28;20033;-80
2023/02/08 10:34:53;;;;;;;10.77;8.70;;;;;;;3.54;40.25;101659.63;5019333;28;20609;-82
2023/02/08 10:37:26;;;;;;;12.67;9.30;;;;;;;3.33;40.49;101614.63;5024099;28;20066;-81
2023/02/08 10:39:53;;;;;;;11.20;9.07;;;;;;;3.30;40.82;101604.34;5020792;28;20026;-81
2023/02/08 10:42:21;;;;;;;12.63;8.20;;;;;;;3.80;40.24;101669.56;5006318;28;20029;-81
2023/02/08 10:44:56;;;;;;;10.37;8.57;;;;;;;3.74;40.05;101665.50;5011608;28;20473;-81
2023/02/08 10:47:31;;;;;;;14.70;10.33;;;;;;;3.34;39.67;101606.69;5012766;28;20035;-81
2023/02/08 10:50:04;;;;;;;13.07;9.13;;;;;;;3.57;40.35;101665.53;5024363;28;20544;-81
2023/02/08 10:52:29;;;;;;;12.50;9.60;;;;;;;2.94;40.31;101554.88;5007795;28;20141;-81
2023/02/08 10:54:58;;;;;;;10.30;8.03;;;;;;;3.40;40.06;101622.03;5007914;28;20123;-81
2023/02/08 10:57:29;;;;;;;11.23;8.53;;;;;;;3.06;39.59;101536.00;5028999;28;20029;-80
2023/02/08 11:00:04;;;;;;;11.93;8.90;;;;;;;3.95;39.42;101658.28;5030336;28;20534;-81
2023/02/08 11:02:39;;;;;;;13.03;9.40;;;;;;;4.14;38.00;101664.19;5001003;28;20094;-81
2023/02/08 11:05:11;;;;;;;14.33;11.20;;;;;;;3.80;38.96;101628.59;5032750;28;20036;-82
2023/02/08 11:07:37;;;;;;;12.65;9.00;;;;;;;3.17;39.25;101525.84;5030511;28;20037;-81
2023/02/08 11:10:11;;;;;;;12.50;8.27;;;;;;;3.70;38.39;101652.66;5027254;28;20086;-81
2023/02/08 11:12:39;;;;;;;11.07;8.97;;;;;;;2.93;39.43;101534.94;5012245;28;20040;-81
2023/02/08 11:15:05;;;;;;;12.93;10.10;;;;;;;2.64;39.81;101476.47;5024079;28;20021;-81
2023/02/08 11:17:32;;;;;;;11.87;8.80;;;;;;;3.78;39.28;101659.19;5030249;28;20033;-81
2023/02/08 11:19:59;;;;;;;13.10;9.77;;;;;;;3.27;39.06;101583.63;5016225;28;20052;-81
2023/02/08 11:22:29;;;;;;;14.27;9.97;;;;;;;2.80;39.43;101513.84;5003142;28;20060;-81
2023/02/08 11:25:04;;;;;;;11.63;8.97;;;;;;;3.60;38.37;101651.47;5027668;28;20023;-81
2023/02/08 11:27:36;;;;;;;10.37;8.10;;;;;;;3.31;39.32;101634.75;5017985;28;20025;-81
2023/02/08 11:30:13;;;;;;;12.10;8.43;;;;;;;3.63;38.59;101644.31;5002619;28;20414;-81
2023/02/08 11:32:40;;;;;;;14.37;10.13;;;;;;;3.59;39.17;101645.41;5028935;28;20068;-81